createdAt,value
2023-01-31T00:01:58.673Z,2.90
2023-01-31T00:04:26.865Z,5.90
2023-01-31T00:06:54.666Z,5.30
2023-01-31T00:09:22.618Z,3.90
2023-01-31T00:11:50.654Z,2.80
2023-01-31T00:14:20.402Z,4.70
2023-01-31T00:16:48.386Z,6.20
2023-01-31T00:19:16.511Z,4.20
2023-01-31T00:21:45.445Z,3.80
2023-01-31T00:24:14.777Z,5.30
2023-01-31T00:26:43.111Z,5.50
2023-01-31T00:29:11.602Z,2.50
2023-01-31T00:31:40.124Z,2.80
2023-01-31T00:34:08.752Z,5.00
2023-01-31T00:36:37.988Z,4.10
2023-01-31T00:39:08.695Z,2.40
2023-01-31T00:41:38.613Z,2.50
2023-01-31T00:44:07.808Z,2.70
2023-01-31T00:46:36.623Z,3.50
2023-01-31T00:49:05.374Z,2.30
2023-01-31T00:51:34.363Z,6.10
2023-01-31T00:54:02.853Z,2.70
2023-01-31T00:56:30.882Z,3.10
2023-01-31T00:58:58.936Z,2.20
2023-01-31T01:01:29.193Z,2.40
2023-01-31T01:03:58.381Z,3.40
2023-01-31T01:06:26.875Z,3.10
2023-01-31T01:08:56.420Z,3.90
2023-01-31T01:11:28.920Z,3.60
2023-01-31T01:13:58.743Z,3.60
2023-01-31T01:16:32.902Z,21.20
2023-01-31T01:19:03.384Z,6.60
2023-01-31T01:21:39.618Z,3.80
2023-01-31T01:24:15.446Z,2.50
2023-01-31T01:26:44.829Z,8.80
2023-01-31T01:29:13.302Z,2.80
2023-01-31T01:31:41.772Z,2.50
2023-01-31T01:34:16.027Z,4.20
2023-01-31T01:36:47.550Z,3.40
2023-01-31T01:39:18.277Z,4.60
2023-01-31T01:41:47.011Z,2.80
2023-01-31T01:44:48.556Z,3.30
2023-01-31T01:47:41.237Z,3.20
2023-01-31T01:50:27.624Z,2.70
2023-01-31T01:53:11.083Z,2.20
2023-01-31T01:55:44.645Z,3.10
2023-01-31T01:58:32.518Z,3.50
2023-01-31T02:01:00.771Z,3.00
2023-01-31T02:03:28.930Z,2.40
2023-01-31T02:06:04.840Z,2.20
2023-01-31T02:08:36.154Z,2.10
2023-01-31T02:11:08.336Z,2.20
2023-01-31T02:13:39.246Z,2.60
2023-01-31T02:16:07.379Z,2.40
2023-01-31T02:18:35.797Z,4.70
2023-01-31T02:21:12.470Z,3.00
2023-01-31T02:23:59.494Z,5.70
2023-01-31T02:26:39.894Z,3.50
2023-01-31T02:29:52.674Z,2.60
2023-01-31T02:33:03.588Z,2.70
2023-01-31T02:35:51.142Z,2.60
2023-01-31T02:38:45.470Z,3.50
2023-01-31T02:41:41.069Z,2.60
2023-01-31T02:44:55.522Z,2.20
2023-01-31T02:47:40.930Z,5.20
2023-01-31T02:50:24.963Z,5.10
2023-01-31T02:53:01.089Z,2.10
2023-01-31T02:55:59.601Z,3.00
2023-01-31T02:58:31.671Z,3.80
2023-01-31T03:01:04.199Z,2.00
2023-01-31T03:03:36.237Z,3.40
2023-01-31T03:06:10.950Z,4.60
2023-01-31T03:08:43.735Z,4.70
2023-01-31T03:11:12.421Z,2.60
2023-01-31T03:14:01.944Z,3.30
2023-01-31T03:17:18.419Z,2.10
2023-01-31T03:19:58.473Z,3.30
2023-01-31T03:22:35.580Z,2.50
2023-01-31T03:25:07.189Z,2.20
2023-01-31T03:27:36.566Z,3.40
2023-01-31T03:30:11.852Z,4.70
2023-01-31T03:32:48.919Z,3.60
2023-01-31T03:35:24.248Z,2.20
2023-01-31T03:38:11.945Z,2.60
2023-01-31T03:41:10.295Z,2.70
2023-01-31T03:43:46.290Z,2.50
2023-01-31T03:46:22.664Z,3.60
2023-01-31T03:48:55.923Z,2.90
2023-01-31T03:51:31.754Z,3.90
2023-01-31T03:54:05.803Z,2.40
2023-01-31T03:56:58.927Z,2.40
2023-01-31T03:59:32.554Z,2.70
2023-01-31T04:02:04.466Z,3.50
2023-01-31T04:04:39.531Z,8.00
2023-01-31T04:07:07.552Z,2.90
2023-01-31T04:09:38.536Z,4.80
2023-01-31T04:12:06.757Z,4.00
2023-01-31T04:14:34.758Z,2.90
2023-01-31T04:17:02.563Z,2.60
2023-01-31T04:19:30.508Z,2.00
2023-01-31T04:21:58.490Z,2.40
2023-01-31T04:24:26.824Z,3.80
2023-01-31T04:26:54.637Z,2.20
2023-01-31T04:29:22.444Z,2.10
2023-01-31T04:31:50.492Z,4.10
2023-01-31T04:34:18.461Z,3.00
2023-01-31T04:36:46.353Z,1.90
2023-01-31T04:39:14.724Z,3.40
2023-01-31T04:41:42.839Z,2.30
2023-01-31T04:44:12.070Z,4.20
2023-01-31T04:46:40.176Z,2.80
2023-01-31T04:49:08.855Z,2.90
2023-01-31T04:51:36.896Z,3.20
2023-01-31T04:54:05.389Z,3.30
2023-01-31T04:56:33.573Z,2.90
2023-01-31T04:59:01.779Z,2.30
2023-01-31T05:01:30.617Z,4.10
2023-01-31T05:03:58.500Z,3.30
2023-01-31T05:06:26.298Z,3.20
2023-01-31T05:08:54.690Z,3.30
2023-01-31T05:11:22.653Z,2.40
2023-01-31T05:13:50.702Z,4.00
2023-01-31T05:16:18.700Z,2.80
2023-01-31T05:18:46.724Z,2.40
2023-01-31T05:21:14.566Z,2.90
2023-01-31T05:23:42.862Z,2.90
2023-01-31T05:26:11.164Z,4.90
2023-01-31T05:28:39.154Z,4.30
2023-01-31T05:31:08.682Z,3.10
2023-01-31T05:33:37.054Z,2.80
2023-01-31T05:36:05.884Z,4.50
2023-01-31T05:38:33.989Z,2.70
2023-01-31T05:41:02.135Z,3.00
2023-01-31T05:43:30.034Z,4.00
2023-01-31T05:45:57.870Z,3.20
2023-01-31T05:48:26.055Z,3.50
2023-01-31T05:50:53.896Z,4.60
2023-01-31T05:53:22.815Z,3.60
2023-01-31T05:55:50.805Z,3.50
2023-01-31T05:58:18.877Z,2.90
2023-01-31T06:00:46.833Z,2.40
2023-01-31T06:03:14.678Z,2.40
2023-01-31T06:05:42.688Z,3.20
2023-01-31T06:08:11.166Z,3.70
2023-01-31T06:10:39.062Z,6.00
2023-01-31T06:13:09.470Z,5.40
2023-01-31T06:15:38.123Z,6.60
2023-01-31T06:18:05.988Z,3.90
2023-01-31T06:20:34.128Z,3.80
2023-01-31T06:23:01.912Z,3.60
2023-01-31T06:25:29.944Z,3.10
2023-01-31T06:27:58.056Z,3.30
2023-01-31T06:30:26.105Z,3.80
2023-01-31T06:32:54.106Z,4.80
2023-01-31T06:35:22.631Z,4.20
2023-01-31T06:37:50.661Z,4.00
2023-01-31T06:40:18.730Z,5.90
2023-01-31T06:42:46.779Z,4.30
2023-01-31T06:45:14.699Z,4.50
2023-01-31T06:47:45.282Z,4.20
2023-01-31T06:50:13.936Z,5.50
2023-01-31T06:52:42.227Z,3.90
2023-01-31T06:55:11.692Z,4.50
2023-01-31T06:57:50.030Z,3.30
2023-01-31T07:00:19.248Z,4.00
2023-01-31T07:02:47.439Z,2.90
2023-01-31T07:05:15.889Z,2.40
2023-01-31T07:07:44.031Z,2.40
2023-01-31T07:10:13.070Z,3.10
2023-01-31T07:12:41.126Z,2.20
2023-01-31T07:15:11.219Z,2.20
2023-01-31T07:17:39.318Z,2.70
2023-01-31T07:20:08.814Z,2.50
2023-01-31T07:22:36.780Z,3.70
2023-01-31T07:25:05.411Z,3.30
2023-01-31T07:27:33.371Z,3.30
2023-01-31T07:30:01.317Z,2.40
2023-01-31T07:32:31.122Z,2.80
2023-01-31T07:34:59.118Z,3.20
2023-01-31T07:37:27.151Z,2.30
2023-01-31T07:39:55.247Z,2.90
2023-01-31T07:42:23.375Z,3.10
2023-01-31T07:44:51.350Z,2.70
2023-01-31T07:47:19.306Z,2.80
2023-01-31T07:49:48.483Z,5.10
2023-01-31T07:52:17.097Z,4.10
2023-01-31T07:54:45.066Z,8.50
2023-01-31T07:57:13.509Z,58.60
2023-01-31T07:59:41.629Z,12.20
2023-01-31T08:02:31.830Z,6.00
2023-01-31T08:05:00.338Z,15.40
2023-01-31T08:07:29.548Z,29.40
2023-01-31T08:09:57.491Z,11.30
2023-01-31T08:12:25.532Z,26.00
2023-01-31T08:14:53.299Z,28.80
2023-01-31T08:17:21.260Z,21.60
2023-01-31T08:19:49.338Z,17.60
2023-01-31T08:22:17.239Z,17.60
2023-01-31T08:24:45.377Z,36.60
2023-01-31T08:27:13.355Z,92.20
2023-01-31T08:29:41.279Z,66.90
2023-01-31T08:32:09.213Z,20.80
2023-01-31T08:34:37.196Z,24.00
2023-01-31T08:37:05.276Z,11.10
2023-01-31T08:39:33.546Z,17.30
2023-01-31T08:42:01.951Z,5.00
2023-01-31T08:44:30.386Z,9.50
2023-01-31T08:47:01.931Z,5.00
2023-01-31T08:49:30.353Z,5.00
2023-01-31T08:51:58.252Z,4.70
2023-01-31T08:54:26.262Z,3.60
2023-01-31T08:56:54.255Z,4.10
2023-01-31T08:59:22.120Z,4.50
2023-01-31T09:01:49.893Z,5.80
2023-01-31T09:04:17.992Z,15.40
2023-01-31T09:06:45.853Z,7.90
2023-01-31T09:09:13.790Z,13.40
2023-01-31T09:11:41.844Z,5.90
2023-01-31T09:14:09.728Z,31.00
2023-01-31T09:16:38.951Z,24.70
2023-01-31T09:19:06.978Z,7.90
2023-01-31T09:21:35.093Z,28.00
2023-01-31T09:24:03.948Z,24.30
2023-01-31T09:26:32.423Z,5.40
2023-01-31T09:29:01.708Z,3.30
2023-01-31T09:31:30.474Z,2.40
2023-01-31T09:33:59.253Z,5.30
2023-01-31T09:36:28.540Z,4.50
2023-01-31T09:38:57.495Z,93.60
2023-01-31T09:41:55.492Z,14.80
2023-01-31T09:44:34.940Z,30.70
2023-01-31T09:47:29.923Z,16.90
2023-01-31T09:50:03.135Z,9.40
2023-01-31T09:52:32.559Z,4.20
2023-01-31T09:55:00.678Z,5.70
2023-01-31T09:57:41.839Z,9.70
2023-01-31T10:00:19.287Z,7.80
2023-01-31T10:03:13.092Z,4.10
2023-01-31T10:05:50.281Z,4.30
2023-01-31T10:08:30.675Z,7.70
2023-01-31T10:11:03.075Z,39.60
2023-01-31T10:13:37.192Z,215.60
2023-01-31T10:16:25.424Z,14.00
2023-01-31T10:19:06.546Z,31.80
2023-01-31T10:21:45.331Z,18.30
2023-01-31T10:24:29.531Z,132.70
2023-01-31T10:27:05.753Z,14.50
2023-01-31T10:29:39.901Z,25.20
2023-01-31T10:32:31.857Z,46.30
2023-01-31T10:35:07.763Z,48.30
2023-01-31T10:37:43.747Z,35.10
2023-01-31T10:40:31.701Z,43.30
2023-01-31T10:43:09.854Z,110.00
2023-01-31T10:45:38.637Z,113.80
2023-01-31T10:48:19.634Z,48.50
2023-01-31T10:50:54.083Z,8.20
2023-01-31T10:53:28.109Z,20.30
2023-01-31T10:56:10.495Z,67.40
2023-01-31T10:58:39.975Z,105.90
2023-01-31T11:01:14.665Z,49.70
2023-01-31T11:03:53.763Z,37.00
2023-01-31T11:06:23.383Z,46.40
2023-01-31T11:08:55.673Z,65.30
2023-01-31T11:11:25.719Z,18.90
2023-01-31T11:13:58.430Z,24.60
2023-01-31T11:16:32.793Z,32.40
2023-01-31T11:19:04.788Z,20.50
2023-01-31T11:21:35.848Z,34.30
2023-01-31T11:24:06.905Z,24.80
2023-01-31T11:26:38.640Z,18.30
2023-01-31T11:29:32.811Z,17.00
2023-01-31T11:32:05.323Z,42.60
2023-01-31T11:34:33.993Z,31.10
2023-01-31T11:37:20.004Z,68.10
2023-01-31T11:39:57.262Z,34.80
2023-01-31T11:42:26.078Z,36.30
2023-01-31T11:45:00.030Z,26.50
2023-01-31T11:47:41.492Z,17.50
2023-01-31T11:50:22.521Z,45.20
2023-01-31T11:52:59.203Z,64.10
2023-01-31T11:55:29.325Z,70.80
2023-01-31T11:57:59.990Z,175.40
2023-01-31T12:00:33.580Z,61.80
2023-01-31T12:03:08.974Z,48.40
2023-01-31T12:05:41.804Z,23.60
2023-01-31T12:08:37.357Z,15.20
2023-01-31T12:11:24.002Z,30.00
2023-01-31T12:13:54.271Z,22.40
2023-01-31T12:16:26.699Z,86.20
2023-01-31T12:19:36.800Z,41.30
2023-01-31T12:22:33.920Z,20.90
2023-01-31T12:25:20.657Z,35.00
2023-01-31T12:28:12.671Z,86.80
2023-01-31T12:31:09.697Z,74.90
2023-01-31T12:34:10.790Z,121.10
2023-01-31T12:37:06.399Z,45.00
2023-01-31T12:42:40.093Z,18.60
2023-01-31T12:45:37.346Z,37.10
2023-01-31T12:48:20.420Z,71.50
2023-01-31T12:51:16.683Z,66.50
2023-01-31T12:53:59.914Z,37.90
2023-01-31T12:56:30.734Z,49.30
2023-01-31T12:59:16.298Z,55.30
2023-01-31T13:04:52.981Z,31.60
2023-01-31T13:07:37.861Z,40.80
2023-01-31T13:10:20.909Z,50.30
2023-01-31T13:12:49.419Z,43.40
2023-01-31T13:15:39.480Z,46.80
2023-01-31T13:18:11.372Z,32.50
2023-01-31T13:20:45.822Z,25.40
2023-01-31T13:23:22.824Z,18.10
2023-01-31T13:26:07.731Z,29.30
2023-01-31T13:28:45.751Z,36.80
2023-01-31T13:31:38.719Z,24.70
2023-01-31T13:34:18.459Z,21.60
2023-01-31T13:36:52.123Z,18.20
2023-01-31T13:39:39.122Z,28.40
2023-01-31T13:42:07.204Z,15.90
2023-01-31T13:44:35.167Z,34.80
2023-01-31T13:47:13.420Z,18.00
2023-01-31T13:49:47.774Z,25.00
2023-01-31T13:52:40.224Z,25.10
2023-01-31T13:55:15.642Z,26.10
2023-01-31T13:58:09.622Z,40.70
2023-01-31T14:00:43.959Z,47.20
2023-01-31T14:03:17.882Z,41.50
2023-01-31T14:05:47.770Z,36.80
2023-01-31T14:08:47.783Z,19.50
2023-01-31T14:11:16.568Z,53.30
2023-01-31T14:13:50.204Z,29.60
2023-01-31T14:16:46.362Z,27.20
2023-01-31T14:19:20.046Z,40.50
2023-01-31T14:22:03.380Z,29.00
2023-01-31T14:24:46.892Z,17.90
2023-01-31T14:27:23.994Z,22.20
2023-01-31T14:30:04.822Z,38.20
2023-01-31T14:32:51.911Z,34.50
2023-01-31T14:35:50.074Z,56.90
2023-01-31T14:38:43.207Z,98.00
2023-01-31T14:41:38.971Z,90.50
2023-01-31T14:44:44.583Z,66.30
2023-01-31T14:47:26.187Z,52.40
2023-01-31T14:50:19.565Z,60.90
2023-01-31T14:53:09.011Z,86.00
2023-01-31T14:56:02.499Z,54.00
2023-01-31T14:58:32.330Z,36.00
2023-01-31T15:01:04.795Z,44.40
2023-01-31T15:03:49.354Z,42.10
2023-01-31T15:06:30.943Z,21.80
2023-01-31T15:09:14.204Z,35.20
2023-01-31T15:11:44.437Z,40.70
2023-01-31T15:14:34.285Z,41.80
2023-01-31T15:17:08.881Z,30.00
2023-01-31T15:19:48.583Z,46.50
2023-01-31T15:22:18.669Z,35.40
2023-01-31T15:24:53.384Z,42.20
2023-01-31T15:27:28.786Z,97.80
2023-01-31T15:32:40.874Z,45.10
2023-01-31T15:35:30.029Z,32.30
2023-01-31T15:38:27.121Z,57.60
2023-01-31T15:41:18.165Z,71.50
2023-01-31T15:43:47.344Z,42.00
2023-01-31T15:46:22.152Z,38.80
2023-01-31T15:48:50.523Z,71.90
2023-01-31T15:51:20.367Z,101.50
2023-01-31T15:53:49.778Z,61.20
2023-01-31T15:56:25.780Z,54.30
2023-01-31T15:58:56.807Z,89.60
2023-01-31T16:01:30.381Z,66.90
2023-01-31T16:04:00.148Z,48.70
2023-01-31T16:06:31.272Z,98.00
2023-01-31T16:09:01.544Z,61.40
2023-01-31T16:11:33.850Z,66.60
2023-01-31T16:14:07.785Z,99.70
2023-01-31T16:16:36.683Z,51.00
2023-01-31T16:19:06.047Z,32.30
2023-01-31T16:21:41.515Z,35.40
2023-01-31T16:24:20.596Z,40.40
2023-01-31T16:26:56.302Z,37.90
2023-01-31T16:29:49.481Z,34.20
2023-01-31T16:32:22.754Z,33.60
2023-01-31T16:35:00.986Z,45.80
2023-01-31T16:37:38.142Z,65.10
2023-01-31T16:40:10.919Z,30.60
2023-01-31T16:42:39.357Z,17.40
2023-01-31T16:45:31.582Z,29.80
2023-01-31T16:48:33.453Z,91.20
2023-01-31T16:51:35.027Z,47.90
2023-01-31T16:54:25.632Z,32.50
2023-01-31T16:57:02.848Z,55.50
2023-01-31T16:59:33.690Z,45.10
2023-01-31T17:02:02.920Z,40.20
2023-01-31T17:04:31.274Z,44.40
2023-01-31T17:07:05.619Z,37.40
2023-01-31T17:09:35.584Z,21.40
2023-01-31T17:12:06.428Z,18.00
2023-01-31T17:14:35.511Z,50.90
2023-01-31T17:17:04.722Z,46.80
2023-01-31T17:19:35.105Z,30.10
2023-01-31T17:22:03.632Z,27.50
2023-01-31T17:24:31.703Z,25.50
2023-01-31T17:26:59.922Z,18.30
2023-01-31T17:29:27.818Z,28.60
2023-01-31T17:31:55.741Z,36.10
2023-01-31T17:34:23.560Z,32.80
2023-01-31T17:36:51.359Z,73.40
2023-01-31T17:39:19.399Z,25.90
2023-01-31T17:41:47.507Z,91.70
2023-01-31T17:44:16.017Z,39.80
2023-01-31T17:46:44.447Z,39.00
2023-01-31T17:49:12.739Z,36.10
2023-01-31T17:51:41.062Z,34.50
2023-01-31T17:54:09.068Z,41.70
2023-01-31T17:56:38.378Z,21.20
2023-01-31T17:59:08.395Z,30.60
2023-01-31T18:01:36.503Z,70.20
2023-01-31T18:04:05.645Z,29.60
2023-01-31T18:06:33.772Z,64.70
2023-01-31T18:09:04.945Z,65.10
2023-01-31T18:11:33.192Z,26.80
2023-01-31T18:14:03.936Z,27.90
2023-01-31T18:16:32.762Z,64.50
2023-01-31T18:19:00.691Z,22.80
2023-01-31T18:21:28.804Z,29.10
2023-01-31T18:23:58.289Z,61.80
2023-01-31T18:26:26.327Z,50.90
2023-01-31T18:28:57.262Z,57.40
2023-01-31T18:31:25.381Z,123.60
2023-01-31T18:33:53.649Z,40.10
2023-01-31T18:36:22.386Z,40.00
2023-01-31T18:38:51.603Z,71.70
2023-01-31T18:41:20.977Z,47.20
2023-01-31T18:43:49.560Z,35.90
2023-01-31T18:46:17.511Z,25.30
2023-01-31T18:48:45.424Z,18.80
2023-01-31T18:51:15.073Z,14.50
2023-01-31T18:53:45.981Z,14.00
2023-01-31T18:56:20.327Z,30.40
2023-01-31T18:58:49.909Z,12.50
2023-01-31T19:01:20.027Z,22.70
2023-01-31T19:03:53.030Z,10.50
2023-01-31T19:06:25.134Z,18.50
2023-01-31T19:08:55.678Z,18.50
2023-01-31T19:11:26.502Z,13.40
2023-01-31T19:13:54.944Z,17.70
2023-01-31T19:16:28.673Z,30.80
2023-01-31T19:18:57.297Z,8.40
2023-01-31T19:21:31.536Z,11.50
2023-01-31T19:24:01.890Z,10.80
2023-01-31T19:26:31.369Z,12.90
2023-01-31T19:29:00.075Z,13.80
2023-01-31T19:31:33.692Z,12.90
2023-01-31T19:34:04.604Z,14.40
2023-01-31T19:36:36.942Z,17.70
2023-01-31T19:39:08.810Z,18.70
2023-01-31T19:41:36.824Z,17.10
2023-01-31T19:44:05.243Z,20.20
2023-01-31T19:46:35.895Z,37.20
2023-01-31T19:49:04.860Z,26.70
2023-01-31T19:51:33.653Z,34.00
2023-01-31T19:54:03.014Z,34.60
2023-01-31T19:56:32.172Z,25.90
2023-01-31T19:59:00.565Z,24.90
2023-01-31T20:01:28.642Z,21.80
2023-01-31T20:03:56.480Z,17.10
2023-01-31T20:06:29.879Z,14.20
2023-01-31T20:09:00.624Z,12.90
2023-01-31T20:11:29.514Z,23.70
2023-01-31T20:13:58.117Z,19.40
2023-01-31T20:16:26.924Z,28.30
2023-01-31T20:18:56.230Z,29.40
2023-01-31T20:21:24.451Z,24.10
2023-01-31T20:23:53.865Z,47.30
2023-01-31T20:26:24.312Z,27.30
2023-01-31T20:28:52.595Z,15.70
2023-01-31T20:31:20.720Z,17.00
2023-01-31T20:33:52.176Z,15.10
2023-01-31T20:36:23.859Z,13.70
2023-01-31T20:38:52.167Z,17.20
2023-01-31T20:41:22.416Z,19.80
2023-01-31T20:43:50.724Z,8.50
2023-01-31T20:46:19.506Z,10.50
2023-01-31T20:48:47.664Z,8.00
2023-01-31T20:51:15.685Z,9.20
2023-01-31T20:53:43.587Z,7.80
2023-01-31T20:56:11.634Z,10.30
2023-01-31T20:58:42.120Z,10.00
2023-01-31T21:01:11.530Z,8.60
2023-01-31T21:03:42.470Z,9.40
2023-01-31T21:06:10.883Z,9.80
2023-01-31T21:08:40.219Z,11.20
2023-01-31T21:11:11.075Z,17.80
2023-01-31T21:13:40.187Z,38.10
2023-01-31T21:16:11.074Z,35.30
2023-01-31T21:18:40.388Z,30.20
2023-01-31T21:21:11.279Z,7.90
2023-01-31T21:23:40.759Z,7.10
2023-01-31T21:26:11.016Z,11.50
2023-01-31T21:28:43.868Z,5.30
2023-01-31T21:31:17.199Z,5.30
2023-01-31T21:33:50.687Z,17.10
2023-01-31T21:36:22.298Z,9.40
2023-01-31T21:38:51.079Z,7.00
2023-01-31T21:41:38.153Z,6.40
2023-01-31T21:44:06.864Z,5.20
2023-01-31T21:46:35.157Z,2.20
2023-01-31T21:49:03.298Z,1.60
2023-01-31T21:51:31.390Z,6.10
2023-01-31T21:53:59.233Z,1.80
2023-01-31T21:56:28.373Z,5.70
2023-01-31T21:58:57.570Z,4.60
2023-01-31T22:01:29.214Z,9.30
2023-01-31T22:03:59.344Z,25.40
2023-01-31T22:06:31.689Z,37.70
2023-01-31T22:09:04.346Z,14.50
2023-01-31T22:11:35.956Z,1.90
2023-01-31T22:14:07.383Z,9.20
2023-01-31T22:16:36.008Z,7.40
2023-01-31T22:19:04.840Z,3.10
2023-01-31T22:21:36.034Z,24.30
2023-01-31T22:24:06.717Z,7.80
2023-01-31T22:26:37.931Z,4.80
2023-01-31T22:29:08.750Z,6.20
2023-01-31T22:31:37.184Z,4.90
2023-01-31T22:34:06.877Z,14.10
2023-01-31T22:36:35.543Z,3.50
2023-01-31T22:39:03.988Z,12.10
2023-01-31T22:41:32.153Z,11.50
2023-01-31T22:44:00.107Z,5.30
2023-01-31T22:46:29.277Z,5.90
2023-01-31T22:48:57.990Z,19.30
2023-01-31T22:51:28.805Z,8.40
2023-01-31T22:53:58.101Z,11.00
2023-01-31T22:56:30.945Z,7.70
2023-01-31T22:59:01.586Z,5.40
2023-01-31T23:01:35.122Z,7.60
2023-01-31T23:04:06.165Z,5.30
2023-01-31T23:06:35.719Z,11.60
2023-01-31T23:09:04.235Z,27.30
2023-01-31T23:11:32.924Z,13.30
2023-01-31T23:14:01.024Z,8.40
2023-01-31T23:16:47.434Z,9.10
2023-01-31T23:19:16.491Z,8.60
2023-01-31T23:21:45.356Z,13.80
2023-01-31T23:24:19.083Z,29.40
2023-01-31T23:26:47.805Z,28.10
2023-01-31T23:29:15.904Z,17.50
2023-01-31T23:31:43.907Z,15.80
2023-01-31T23:34:11.928Z,9.80
2023-01-31T23:36:39.826Z,16.50
2023-01-31T23:39:09.031Z,4.80
2023-01-31T23:41:37.134Z,5.50
2023-01-31T23:44:05.074Z,9.70
2023-01-31T23:46:33.286Z,7.70
2023-01-31T23:49:01.322Z,5.30
2023-01-31T23:51:31.352Z,3.50
2023-01-31T23:54:00.018Z,7.60
2023-01-31T23:56:28.145Z,4.70
2023-01-31T23:58:55.987Z,3.30
